createdAt,value
2018-03-11T00:00:38.186Z,9.60
2018-03-11T00:03:04.452Z,9.50
2018-03-11T00:05:30.802Z,9.50
2018-03-11T00:07:57.125Z,9.60
2018-03-11T00:10:23.470Z,9.50
2018-03-11T00:12:49.802Z,9.50
2018-03-11T00:15:16.101Z,9.40
2018-03-11T00:17:42.456Z,9.40
2018-03-11T00:20:08.769Z,9.50
2018-03-11T00:22:35.038Z,9.50
2018-03-11T00:25:02.120Z,9.50
2018-03-11T00:27:28.382Z,9.60
2018-03-11T00:29:54.687Z,9.50
2018-03-11T00:32:21.005Z,9.60
2018-03-11T00:34:47.273Z,9.70
2018-03-11T00:37:13.609Z,9.70
2018-03-11T00:39:39.929Z,9.70
2018-03-11T00:42:06.223Z,9.80
2018-03-11T00:44:32.562Z,9.90
2018-03-11T00:46:58.926Z,10.00
2018-03-11T00:49:25.281Z,10.00
2018-03-11T00:51:51.598Z,9.90
2018-03-11T00:54:17.916Z,10.00
2018-03-11T00:56:44.225Z,10.00
2018-03-11T00:59:10.542Z,10.00
2018-03-11T01:01:37.156Z,10.00
2018-03-11T01:04:04.254Z,9.90
2018-03-11T01:06:31.461Z,9.90
2018-03-11T01:08:58.594Z,9.90
2018-03-11T01:11:24.921Z,9.90
2018-03-11T01:13:51.219Z,9.80
2018-03-11T01:16:17.540Z,9.90
2018-03-11T01:18:43.857Z,9.90
2018-03-11T01:21:10.192Z,9.90
2018-03-11T01:23:37.232Z,9.80
2018-03-11T01:26:03.559Z,9.80
2018-03-11T01:28:29.920Z,9.80
2018-03-11T01:30:56.323Z,9.90
2018-03-11T01:33:24.348Z,9.80
2018-03-11T01:35:50.705Z,9.80
2018-03-11T01:38:17.836Z,9.90
2018-03-11T01:40:44.143Z,9.90
2018-03-11T01:43:10.468Z,9.70
2018-03-11T01:45:36.790Z,9.80
2018-03-11T01:48:03.142Z,9.70
2018-03-11T01:50:29.456Z,9.80
2018-03-11T01:53:07.991Z,9.90
2018-03-11T01:55:34.287Z,9.90
2018-03-11T01:58:00.619Z,9.90
2018-03-11T02:00:26.898Z,9.90
2018-03-11T02:02:53.225Z,9.90
2018-03-11T02:05:19.535Z,9.90
2018-03-11T02:07:45.835Z,9.80
2018-03-11T02:10:12.098Z,9.80
2018-03-11T02:12:38.395Z,9.70
2018-03-11T02:15:04.691Z,9.80
2018-03-11T02:17:31.003Z,9.90
2018-03-11T02:19:57.318Z,9.80
2018-03-11T02:22:23.625Z,9.80
2018-03-11T02:24:49.915Z,9.80
2018-03-11T02:27:16.228Z,9.70
2018-03-11T02:29:42.513Z,9.60
2018-03-11T02:32:08.832Z,9.70
2018-03-11T02:34:35.844Z,9.80
2018-03-11T02:37:02.160Z,9.80
2018-03-11T02:39:28.450Z,9.80
2018-03-11T02:41:54.732Z,9.80
2018-03-11T02:44:21.012Z,9.80
2018-03-11T02:46:47.290Z,9.80
2018-03-11T02:49:13.579Z,9.80
2018-03-11T02:51:39.914Z,9.90
2018-03-11T02:54:11.227Z,9.90
2018-03-11T02:56:38.223Z,9.80
2018-03-11T02:59:04.512Z,9.90
2018-03-11T03:01:31.529Z,9.90
2018-03-11T03:03:57.817Z,9.90
2018-03-11T03:06:24.123Z,9.80
2018-03-11T03:08:51.184Z,9.90
2018-03-11T03:11:17.521Z,9.90
2018-03-11T03:13:43.832Z,10.00
2018-03-11T03:16:10.863Z,10.00
2018-03-11T03:18:37.920Z,9.90
2018-03-11T03:21:04.959Z,9.80
2018-03-11T03:23:31.254Z,9.80
2018-03-11T03:25:57.559Z,9.80
2018-03-11T03:28:23.814Z,9.80
2018-03-11T03:30:50.152Z,9.70
2018-03-11T03:33:16.421Z,9.60
2018-03-11T03:35:43.457Z,9.80
2018-03-11T03:38:09.801Z,9.80
2018-03-11T03:40:36.876Z,10.00
2018-03-11T03:43:03.163Z,10.00
2018-03-11T03:45:29.455Z,10.00
2018-03-11T03:47:55.789Z,10.00
2018-03-11T03:50:22.057Z,10.00
2018-03-11T03:52:48.392Z,10.00
2018-03-11T03:55:15.447Z,10.00
2018-03-11T03:57:42.496Z,9.90
2018-03-11T04:00:09.526Z,9.80
2018-03-11T04:02:36.566Z,9.90
2018-03-11T04:05:02.851Z,9.80
2018-03-11T04:07:29.212Z,9.90
2018-03-11T04:09:55.530Z,9.90
2018-03-11T04:12:21.859Z,9.90
2018-03-11T04:14:48.161Z,9.80
2018-03-11T04:17:14.418Z,9.90
2018-03-11T04:19:40.711Z,10.00
2018-03-11T04:22:07.755Z,10.00
2018-03-11T04:24:34.804Z,10.10
2018-03-11T04:27:01.841Z,10.00
2018-03-11T04:29:28.200Z,10.00
2018-03-11T04:31:54.517Z,10.00
2018-03-11T04:34:21.535Z,10.00
2018-03-11T04:36:47.864Z,10.00
2018-03-11T04:39:14.195Z,9.90
2018-03-11T04:41:47.311Z,9.80
2018-03-11T04:44:14.388Z,9.70
2018-03-11T04:46:40.676Z,9.70
2018-03-11T04:49:07.076Z,9.60
2018-03-11T04:51:33.355Z,9.50
2018-03-11T04:53:59.618Z,9.40
2018-03-11T04:56:25.923Z,9.40
2018-03-11T04:58:52.189Z,9.30
2018-03-11T05:01:18.507Z,9.20
2018-03-11T05:03:44.841Z,9.20
2018-03-11T05:06:11.141Z,9.10
2018-03-11T05:08:38.180Z,9.10
2018-03-11T05:11:05.247Z,9.10
2018-03-11T05:13:31.558Z,9.00
2018-03-11T05:15:58.607Z,9.10
2018-03-11T05:18:24.914Z,9.10
2018-03-11T05:20:51.180Z,9.10
2018-03-11T05:23:17.508Z,9.10
2018-03-11T05:25:43.812Z,9.10
2018-03-11T05:28:10.130Z,9.10
2018-03-11T05:30:36.439Z,9.00
2018-03-11T05:33:02.764Z,9.00
2018-03-11T05:35:29.057Z,9.00
2018-03-11T05:37:56.171Z,8.90
2018-03-11T05:40:22.475Z,8.90
2018-03-11T05:42:48.834Z,9.00
2018-03-11T05:45:15.177Z,9.10
2018-03-11T05:47:41.579Z,9.10
2018-03-11T05:50:07.867Z,9.30
2018-03-11T05:52:34.887Z,9.40
2018-03-11T05:55:01.220Z,9.40
2018-03-11T05:57:27.539Z,9.50
2018-03-11T05:59:53.818Z,9.50
2018-03-11T06:02:20.168Z,9.50
2018-03-11T06:04:46.402Z,9.50
2018-03-11T06:07:12.752Z,9.50
2018-03-11T06:09:39.058Z,9.60
2018-03-11T06:12:05.395Z,9.50
2018-03-11T06:14:31.660Z,9.50
2018-03-11T06:16:57.973Z,9.60
2018-03-11T06:19:24.280Z,9.50
2018-03-11T06:21:50.560Z,9.60
2018-03-11T06:24:16.854Z,9.60
2018-03-11T06:26:43.178Z,9.70
2018-03-11T06:29:09.476Z,9.60
2018-03-11T06:31:35.780Z,9.70
2018-03-11T06:34:02.184Z,9.80
2018-03-11T06:36:28.439Z,10.00
2018-03-11T06:38:54.877Z,10.00
2018-03-11T06:41:21.191Z,10.10
2018-03-11T06:43:47.509Z,10.10
2018-03-11T06:46:13.822Z,10.10
2018-03-11T06:48:40.119Z,10.20
2018-03-11T06:51:06.501Z,10.30
2018-03-11T06:53:32.861Z,10.50
2018-03-11T06:55:59.186Z,10.50
2018-03-11T06:58:25.630Z,10.50
2018-03-11T07:00:51.923Z,10.50
2018-03-11T07:03:18.379Z,10.70
2018-03-11T07:05:44.698Z,10.70
2018-03-11T07:08:11.021Z,10.90
2018-03-11T07:10:37.355Z,11.00
2018-03-11T07:13:03.690Z,11.00
2018-03-11T07:15:30.061Z,11.30
2018-03-11T07:17:56.371Z,11.30
2018-03-11T07:20:22.690Z,11.50
2018-03-11T07:22:48.938Z,11.50
2018-03-11T07:25:15.276Z,11.50
2018-03-11T07:27:41.606Z,11.60
2018-03-11T07:30:07.939Z,11.60
2018-03-11T07:32:34.239Z,11.50
2018-03-11T07:35:00.598Z,11.60
2018-03-11T07:37:26.906Z,11.70
2018-03-11T07:40:17.210Z,11.70
2018-03-11T07:42:50.414Z,11.90
2018-03-11T07:45:16.708Z,11.90
2018-03-11T07:47:43.070Z,11.90
2018-03-11T07:50:09.371Z,12.10
2018-03-11T07:52:35.633Z,12.30
2018-03-11T07:55:01.960Z,12.30
2018-03-11T07:57:28.259Z,12.40
2018-03-11T07:59:54.515Z,12.50
2018-03-11T08:02:20.853Z,12.80
2018-03-11T08:04:47.195Z,13.00
2018-03-11T08:07:14.267Z,13.00
2018-03-11T08:09:41.481Z,12.80
2018-03-11T08:12:08.839Z,12.80
2018-03-11T08:14:35.313Z,12.40
2018-03-11T08:17:01.712Z,12.50
2018-03-11T08:19:28.043Z,12.70
2018-03-11T08:21:54.388Z,12.90
2018-03-11T08:24:21.388Z,13.50
2018-03-11T08:26:47.696Z,13.50
2018-03-11T08:29:13.979Z,13.60
2018-03-11T08:31:40.751Z,13.80
2018-03-11T08:34:07.784Z,13.80
2018-03-11T08:36:34.099Z,13.80
2018-03-11T08:39:00.694Z,13.70
2018-03-11T08:41:27.035Z,13.60
2018-03-11T08:43:53.327Z,13.50
2018-03-11T08:46:19.901Z,13.80
2018-03-11T08:48:46.491Z,13.70
2018-03-11T08:51:13.705Z,14.00
2018-03-11T08:53:40.243Z,14.00
2018-03-11T08:56:06.869Z,14.10
2018-03-11T08:58:33.210Z,14.10
2018-03-11T09:00:59.637Z,14.10
2018-03-11T09:03:25.956Z,14.00
2018-03-11T09:05:52.301Z,14.20
2018-03-11T09:08:19.509Z,14.40
2018-03-11T09:10:46.540Z,14.70
2018-03-11T09:13:12.898Z,14.70
2018-03-11T09:15:39.444Z,14.70
2018-03-11T09:18:05.776Z,14.60
2018-03-11T09:20:32.109Z,14.70
2018-03-11T09:22:58.422Z,14.60
2018-03-11T09:25:24.750Z,14.80
2018-03-11T09:27:51.798Z,15.10
2018-03-11T09:30:18.876Z,15.00
2018-03-11T09:32:45.185Z,15.00
2018-03-11T09:35:12.240Z,15.30
2018-03-11T09:37:38.505Z,15.30
2018-03-11T09:40:05.602Z,15.50
2018-03-11T09:42:32.668Z,15.40
2018-03-11T09:44:58.969Z,15.40
2018-03-11T09:47:25.447Z,15.30
2018-03-11T09:49:51.800Z,15.40
2018-03-11T09:52:18.824Z,15.60
2018-03-11T09:54:45.470Z,15.60
2018-03-11T09:57:11.749Z,15.80
2018-03-11T09:59:38.798Z,15.90
2018-03-11T10:02:05.313Z,15.90
2018-03-11T10:04:32.346Z,16.20
2018-03-11T10:06:58.615Z,16.10
2018-03-11T10:09:25.792Z,16.50
2018-03-11T10:11:52.178Z,16.40
2018-03-11T10:14:18.622Z,16.60
2018-03-11T10:16:45.024Z,16.60
2018-03-11T10:19:11.320Z,16.70
2018-03-11T10:21:37.815Z,16.70
2018-03-11T10:24:04.128Z,16.70
2018-03-11T10:26:30.442Z,16.80
2018-03-11T10:28:56.748Z,17.00
2018-03-11T10:31:23.507Z,17.20
2018-03-11T10:33:55.159Z,16.90
2018-03-11T10:36:21.884Z,17.00
2018-03-11T10:38:48.554Z,17.30
2018-03-11T10:41:15.999Z,17.10
2018-03-11T10:43:42.470Z,17.20
2018-03-11T10:46:10.286Z,17.30
2018-03-11T10:48:41.449Z,17.40
2018-03-11T10:51:07.769Z,17.60
2018-03-11T10:53:34.089Z,17.70
2018-03-11T10:56:03.506Z,17.80
2018-03-11T10:58:29.812Z,18.00
2018-03-11T11:00:56.960Z,18.30
2018-03-11T11:03:28.104Z,18.20
2018-03-11T11:05:55.503Z,18.50
2018-03-11T11:08:21.822Z,18.50
2018-03-11T11:10:48.111Z,18.30
2018-03-11T11:13:17.444Z,18.50
2018-03-11T11:15:46.126Z,18.70
2018-03-11T11:18:12.636Z,18.90
2018-03-11T11:20:42.109Z,18.90
2018-03-11T11:23:09.303Z,19.10
2018-03-11T11:25:37.100Z,20.10
2018-03-11T11:28:04.483Z,20.00
2018-03-11T11:30:32.091Z,20.20
2018-03-11T11:32:59.118Z,20.40
2018-03-11T11:35:25.446Z,20.40
2018-03-11T11:37:53.368Z,20.80
2018-03-11T11:40:19.712Z,21.00
2018-03-11T11:42:46.030Z,20.60
2018-03-11T11:45:12.322Z,20.60
2018-03-11T11:47:39.454Z,22.30
2018-03-11T11:50:05.778Z,22.30
2018-03-11T11:52:34.196Z,23.50
2018-03-11T11:55:00.655Z,24.40
2018-03-11T11:57:26.995Z,24.20
2018-03-11T11:59:53.295Z,23.90
2018-03-11T12:02:19.607Z,25.40
2018-03-11T12:04:47.562Z,27.10
2018-03-11T12:07:13.989Z,27.10
2018-03-11T12:09:40.625Z,28.30
2018-03-11T12:12:07.945Z,29.40
2018-03-11T12:14:34.708Z,29.40
2018-03-11T12:17:01.259Z,32.20
2018-03-11T12:19:27.596Z,33.00
2018-03-11T12:21:53.868Z,32.00
2018-03-11T12:24:20.152Z,31.30
2018-03-11T12:26:46.408Z,33.30
2018-03-11T12:29:14.481Z,29.40
2018-03-11T12:31:42.565Z,29.60
2018-03-11T12:34:08.818Z,29.50
2018-03-11T12:36:35.181Z,29.80
2018-03-11T12:39:01.492Z,29.10
2018-03-11T12:41:27.784Z,30.40
2018-03-11T12:43:54.138Z,30.40
2018-03-11T12:46:20.503Z,31.70
2018-03-11T12:48:47.359Z,34.10
2018-03-11T12:51:13.743Z,34.40
2018-03-11T12:53:40.105Z,35.90
2018-03-11T12:56:06.432Z,34.90
2018-03-11T12:58:32.803Z,33.70
2018-03-11T13:00:59.876Z,32.50
2018-03-11T13:03:26.189Z,32.40
2018-03-11T13:05:53.218Z,30.30
2018-03-11T13:08:19.509Z,30.20
2018-03-11T13:10:45.880Z,29.50
2018-03-11T13:13:12.219Z,30.60
2018-03-11T13:15:38.572Z,29.30
2018-03-11T13:18:05.682Z,30.10
2018-03-11T13:20:50.688Z,30.10
2018-03-11T13:23:18.062Z,29.80
2018-03-11T13:25:44.468Z,29.80
2018-03-11T13:28:29.240Z,30.20
2018-03-11T13:30:56.304Z,32.00
2018-03-11T13:33:41.526Z,32.00
2018-03-11T13:36:07.947Z,32.20
2018-03-11T13:38:52.885Z,31.40
2018-03-11T13:41:19.178Z,31.50
2018-03-11T13:43:46.220Z,31.70
2018-03-11T13:46:31.852Z,31.60
2018-03-11T13:48:58.235Z,30.70
2018-03-11T13:51:43.096Z,30.90
2018-03-11T13:54:10.299Z,30.90
2018-03-11T13:56:36.581Z,31.70
2018-03-11T13:59:02.888Z,29.30
2018-03-11T14:01:29.148Z,27.90
2018-03-11T14:03:56.193Z,28.20
2018-03-11T14:06:22.531Z,28.20
2018-03-11T14:08:49.591Z,27.40
2018-03-11T14:11:15.934Z,27.30
2018-03-11T14:13:42.303Z,25.50
2018-03-11T14:16:08.634Z,23.70
2018-03-11T14:18:34.949Z,22.40
2018-03-11T14:21:01.256Z,21.20
2018-03-11T14:23:27.630Z,21.00
2018-03-11T14:25:53.956Z,21.30
2018-03-11T14:28:20.391Z,21.40
2018-03-11T14:30:46.734Z,21.80
2018-03-11T14:33:13.095Z,21.80
2018-03-11T14:35:40.188Z,20.80
2018-03-11T14:38:06.602Z,20.70
2018-03-11T14:40:32.967Z,20.50
2018-03-11T14:42:59.436Z,20.40
2018-03-11T14:45:25.763Z,20.50
2018-03-11T14:47:52.174Z,20.30
2018-03-11T14:50:18.597Z,20.20
2018-03-11T14:52:44.943Z,20.30
2018-03-11T14:55:11.285Z,20.30
2018-03-11T14:57:37.649Z,20.10
2018-03-11T15:00:03.985Z,20.20
2018-03-11T15:02:31.032Z,20.00
2018-03-11T15:04:57.375Z,19.90
2018-03-11T15:07:23.733Z,20.20
2018-03-11T15:10:04.528Z,19.90
2018-03-11T15:12:30.848Z,19.90
2018-03-11T15:14:57.102Z,19.90
2018-03-11T15:17:23.496Z,19.70
2018-03-11T15:19:49.816Z,19.60
2018-03-11T15:22:16.178Z,19.20
2018-03-11T15:24:42.591Z,19.10
2018-03-11T15:27:08.876Z,18.90
2018-03-11T15:29:35.931Z,18.30
2018-03-11T15:32:03.077Z,18.00
2018-03-11T15:34:29.415Z,18.00
2018-03-11T15:36:56.443Z,17.60
2018-03-11T15:39:22.850Z,17.50
2018-03-11T15:41:49.184Z,17.50
2018-03-11T15:44:15.572Z,17.30
2018-03-11T15:46:41.848Z,17.20
2018-03-11T15:49:08.926Z,17.10
2018-03-11T15:51:36.008Z,17.20
2018-03-11T15:54:02.318Z,17.20
2018-03-11T15:56:29.360Z,16.90
2018-03-11T15:58:55.868Z,16.80
2018-03-11T16:01:22.251Z,16.80
2018-03-11T16:03:48.536Z,16.70
2018-03-11T16:06:14.817Z,16.60
2018-03-11T16:08:41.206Z,16.60
2018-03-11T16:11:07.533Z,16.50
2018-03-11T16:13:33.867Z,16.30
2018-03-11T16:16:00.923Z,16.20
2018-03-11T16:18:28.155Z,16.10
2018-03-11T16:20:54.443Z,16.10
2018-03-11T16:23:20.738Z,16.10
2018-03-11T16:25:47.745Z,16.00
2018-03-11T16:28:14.085Z,15.90
2018-03-11T16:30:40.398Z,15.90
2018-03-11T16:33:06.759Z,15.90
2018-03-11T16:35:33.049Z,15.80
2018-03-11T16:37:59.313Z,15.70
2018-03-11T16:40:25.632Z,15.60
2018-03-11T16:42:51.964Z,15.50
2018-03-11T16:45:19.022Z,15.30
2018-03-11T16:47:45.420Z,15.20
2018-03-11T16:50:11.732Z,15.20
2018-03-11T16:52:38.048Z,15.10
2018-03-11T16:55:05.097Z,14.90
2018-03-11T16:57:32.120Z,14.80
2018-03-11T16:59:59.225Z,14.80
2018-03-11T17:02:25.641Z,14.70
2018-03-11T17:04:52.707Z,14.50
2018-03-11T17:07:19.065Z,14.50
2018-03-11T17:09:45.420Z,14.50
2018-03-11T17:12:11.742Z,14.40
2018-03-11T17:14:38.107Z,14.40
2018-03-11T17:17:05.316Z,14.20
2018-03-11T17:19:31.790Z,14.20
2018-03-11T17:21:58.852Z,14.10
2018-03-11T17:24:26.152Z,14.10
2018-03-11T17:26:52.497Z,14.00
2018-03-11T17:29:18.860Z,14.00
2018-03-11T17:31:46.423Z,13.80
2018-03-11T17:34:13.579Z,13.80
2018-03-11T17:36:39.883Z,13.80
2018-03-11T17:39:06.303Z,13.70
2018-03-11T17:41:32.663Z,13.70
2018-03-11T17:43:59.672Z,13.70
2018-03-11T17:46:25.961Z,13.60
2018-03-11T17:48:52.315Z,13.60
2018-03-11T17:51:18.615Z,13.60
2018-03-11T17:53:46.689Z,13.50
2018-03-11T17:56:12.984Z,13.50
2018-03-11T17:58:39.278Z,13.50
2018-03-11T18:01:05.664Z,13.50
2018-03-11T18:03:31.992Z,13.40
2018-03-11T18:05:59.047Z,13.30
2018-03-11T18:08:26.081Z,13.20
2018-03-11T18:10:53.131Z,13.20
2018-03-11T18:13:19.396Z,13.20
2018-03-11T18:15:45.957Z,13.20
2018-03-11T18:18:12.533Z,13.10
2018-03-11T18:20:39.733Z,13.10
2018-03-11T18:23:06.401Z,13.00
2018-03-11T18:25:33.050Z,13.00
2018-03-11T18:27:59.595Z,12.90
2018-03-11T18:30:27.361Z,12.80
2018-03-11T18:32:55.005Z,12.90
2018-03-11T18:35:21.647Z,12.90
2018-03-11T18:37:48.212Z,12.80
2018-03-11T18:40:15.346Z,12.90
2018-03-11T18:42:41.708Z,12.80
2018-03-11T18:45:08.992Z,12.80
2018-03-11T18:47:35.460Z,12.70
2018-03-11T18:50:02.277Z,12.70
2018-03-11T18:52:28.658Z,12.60
2018-03-11T18:54:55.791Z,12.60
2018-03-11T18:57:22.217Z,12.60
2018-03-11T18:59:48.541Z,12.50
2018-03-11T19:02:14.927Z,12.60
2018-03-11T19:04:41.356Z,12.50
2018-03-11T19:07:07.875Z,12.40
2018-03-11T19:09:35.038Z,12.40
2018-03-11T19:12:02.341Z,12.30
2018-03-11T19:14:28.806Z,12.30
2018-03-11T19:16:55.918Z,12.10
2018-03-11T19:19:22.446Z,12.10
2018-03-11T19:21:48.904Z,12.10
2018-03-11T19:24:15.348Z,12.10
2018-03-11T19:26:41.684Z,12.10
2018-03-11T19:29:08.620Z,12.00
2018-03-11T19:31:35.013Z,11.90
2018-03-11T19:34:01.423Z,11.90
2018-03-11T19:36:27.883Z,11.90
2018-03-11T19:38:56.065Z,11.80
2018-03-11T19:41:22.535Z,11.70
2018-03-11T19:43:49.025Z,11.80
2018-03-11T19:46:15.655Z,11.70
2018-03-11T19:48:42.074Z,11.70
2018-03-11T19:51:12.376Z,11.60
2018-03-11T19:53:38.846Z,11.60
2018-03-11T19:56:05.257Z,11.60
2018-03-11T19:58:32.276Z,11.60
2018-03-11T20:00:58.630Z,11.50
2018-03-11T20:03:25.978Z,11.50
2018-03-11T20:05:52.999Z,11.50
2018-03-11T20:08:19.333Z,11.50
2018-03-11T20:10:45.659Z,11.40
2018-03-11T20:13:12.018Z,11.40
2018-03-11T20:15:39.087Z,11.30
2018-03-11T20:18:06.359Z,11.20
2018-03-11T20:20:32.701Z,11.20
2018-03-11T20:22:59.480Z,11.20
2018-03-11T20:25:25.814Z,11.20
2018-03-11T20:27:52.147Z,11.20
2018-03-11T20:30:18.561Z,11.10
2018-03-11T20:32:45.144Z,11.10
2018-03-11T20:35:11.483Z,11.00
2018-03-11T20:37:38.586Z,11.00
2018-03-11T20:40:04.870Z,11.00
2018-03-11T20:42:31.204Z,11.10
2018-03-11T20:44:57.535Z,11.10
2018-03-11T20:47:23.831Z,11.20
2018-03-11T20:49:50.928Z,11.30
2018-03-11T20:52:17.217Z,11.30
2018-03-11T20:54:44.267Z,11.40
2018-03-11T20:57:13.754Z,11.40
2018-03-11T20:59:40.103Z,11.40
2018-03-11T21:02:07.146Z,11.50
2018-03-11T21:04:34.374Z,11.40
2018-03-11T21:07:00.717Z,11.40
2018-03-11T21:09:27.017Z,11.40
2018-03-11T21:11:53.342Z,11.30
2018-03-11T21:14:19.680Z,11.30
2018-03-11T21:16:45.942Z,11.30
2018-03-11T21:19:12.242Z,11.30
2018-03-11T21:21:39.797Z,11.30
2018-03-11T21:24:06.137Z,11.30
2018-03-11T21:27:04.414Z,11.30
2018-03-11T21:29:30.771Z,11.30
2018-03-11T21:31:57.097Z,11.40
2018-03-11T21:34:25.376Z,11.40
2018-03-11T21:36:51.696Z,11.30
2018-03-11T21:39:18.194Z,11.30
2018-03-11T21:41:44.471Z,11.20
2018-03-11T21:44:10.802Z,11.20
2018-03-11T21:46:37.073Z,11.30
2018-03-11T21:49:04.145Z,11.20
2018-03-11T21:51:30.460Z,11.20
2018-03-11T21:53:56.771Z,11.20
2018-03-11T21:56:23.115Z,11.20
2018-03-11T21:58:50.335Z,11.30
2018-03-11T22:01:16.650Z,11.30
2018-03-11T22:03:42.921Z,11.30
2018-03-11T22:06:09.993Z,11.30
2018-03-11T22:08:36.323Z,11.30
2018-03-11T22:11:02.635Z,11.40
2018-03-11T22:13:29.708Z,11.30
2018-03-11T22:15:56.034Z,11.30
2018-03-11T22:18:22.392Z,11.30
2018-03-11T22:20:48.745Z,11.40
2018-03-11T22:23:15.051Z,11.30
2018-03-11T22:25:41.366Z,11.30
2018-03-11T22:28:07.698Z,11.40
2018-03-11T22:30:35.116Z,11.30
2018-03-11T22:33:01.419Z,11.30
2018-03-11T22:35:27.729Z,11.30
2018-03-11T22:37:54.072Z,11.30
2018-03-11T22:40:20.379Z,11.30
2018-03-11T22:42:46.646Z,11.30
2018-03-11T22:45:12.960Z,11.30
2018-03-11T22:47:39.268Z,11.30
2018-03-11T22:50:05.603Z,11.30
2018-03-11T22:52:31.923Z,11.30
2018-03-11T22:54:58.215Z,11.30
2018-03-11T22:57:24.566Z,11.30
2018-03-11T22:59:51.622Z,11.30
2018-03-11T23:02:17.922Z,11.30
2018-03-11T23:04:44.272Z,11.40
2018-03-11T23:07:11.320Z,11.30
2018-03-11T23:09:38.360Z,11.20
2018-03-11T23:12:04.663Z,11.20
2018-03-11T23:14:30.930Z,11.20
2018-03-11T23:16:57.224Z,11.20
2018-03-11T23:19:23.545Z,11.20
2018-03-11T23:21:49.832Z,11.30
2018-03-11T23:24:16.114Z,11.20
2018-03-11T23:26:42.449Z,11.30
2018-03-11T23:29:08.759Z,11.30
2018-03-11T23:31:35.071Z,11.30
2018-03-11T23:34:01.400Z,11.20
2018-03-11T23:36:27.711Z,11.20
2018-03-11T23:38:54.757Z,11.20
2018-03-11T23:41:21.060Z,11.20
2018-03-11T23:43:47.427Z,11.20
2018-03-11T23:46:13.703Z,11.10
2018-03-11T23:48:40.001Z,11.00
2018-03-11T23:51:06.283Z,11.00
2018-03-11T23:53:32.575Z,10.90
2018-03-11T23:55:58.947Z,10.90
2018-03-11T23:58:25.239Z,10.80
